createdAt,value
2017-04-22T00:00:34.233Z,0
2017-04-22T00:01:44.567Z,0
2017-04-22T00:02:54.892Z,0
2017-04-22T00:04:05.238Z,0
2017-04-22T00:05:15.571Z,0
2017-04-22T00:06:25.601Z,0
2017-04-22T00:07:35.634Z,0
2017-04-22T00:08:45.994Z,0
2017-04-22T00:09:56.324Z,0
2017-04-22T00:11:06.348Z,0
2017-04-22T00:12:16.686Z,0
2017-04-22T00:13:27.055Z,0
2017-04-22T00:14:37.384Z,0
2017-04-22T00:15:47.399Z,0
2017-04-22T00:16:57.411Z,0
2017-04-22T00:18:07.134Z,0
2017-04-22T00:19:17.491Z,0
2017-04-22T00:20:27.841Z,0
2017-04-22T00:21:37.879Z,0
2017-04-22T00:22:48.225Z,0
2017-04-22T00:23:58.246Z,0
2017-04-22T00:25:08.274Z,0
2017-04-22T00:26:18.005Z,0
2017-04-22T00:27:28.048Z,0
2017-04-22T00:28:38.487Z,0
2017-04-22T00:29:48.830Z,0
2017-04-22T00:30:59.156Z,0
2017-04-22T00:32:09.491Z,0
2017-04-22T00:33:19.896Z,0
2017-04-22T00:34:29.977Z,0
2017-04-22T00:35:40.744Z,0
2017-04-22T00:36:51.080Z,0
2017-04-22T00:38:01.583Z,0
2017-04-22T00:39:11.962Z,0
2017-04-22T00:40:22.340Z,0
2017-04-22T00:41:32.366Z,0
2017-04-22T00:42:42.372Z,0
2017-04-22T00:43:52.705Z,0
2017-04-22T00:45:03.047Z,0
2017-04-22T00:46:13.060Z,0
2017-04-22T00:47:23.080Z,0
2017-04-22T00:48:33.101Z,0
2017-04-22T00:49:43.447Z,0
2017-04-22T00:50:53.801Z,0
2017-04-22T00:52:04.136Z,0
2017-04-22T00:53:14.481Z,0
2017-04-22T00:54:24.879Z,0
2017-04-22T00:55:35.216Z,0
2017-04-22T00:56:45.557Z,0
2017-04-22T00:57:55.888Z,0
2017-04-22T00:59:05.598Z,0
2017-04-22T01:00:15.941Z,0
2017-04-22T01:01:26.278Z,0
2017-04-22T01:02:36.329Z,0
2017-04-22T01:03:46.052Z,0
2017-04-22T01:04:56.390Z,0
2017-04-22T01:06:06.419Z,0
2017-04-22T01:07:16.457Z,0
2017-04-22T01:08:26.788Z,0
2017-04-22T01:09:36.810Z,0
2017-04-22T01:10:47.130Z,0
2017-04-22T01:11:57.680Z,0
2017-04-22T01:13:08.024Z,0
2017-04-22T01:14:18.487Z,0
2017-04-22T01:15:28.730Z,0
2017-04-22T01:16:39.068Z,0
2017-04-22T01:17:49.472Z,0
2017-04-22T01:18:59.482Z,0
2017-04-22T01:20:09.501Z,0
2017-04-22T01:21:19.827Z,0
2017-04-22T01:22:30.173Z,0
2017-04-22T01:23:40.512Z,0
2017-04-22T01:24:50.533Z,0
2017-04-22T01:26:00.863Z,0
2017-04-22T01:27:11.201Z,0
2017-04-22T01:28:20.897Z,0
2017-04-22T01:29:31.223Z,0
2017-04-22T01:30:41.568Z,0
2017-04-22T01:31:51.606Z,0
2017-04-22T01:33:01.948Z,0
2017-04-22T01:34:11.961Z,0
2017-04-22T01:35:21.973Z,0
2017-04-22T01:36:31.684Z,0
2017-04-22T01:37:42.011Z,0
2017-04-22T01:38:52.363Z,0
2017-04-22T01:40:02.084Z,0
2017-04-22T01:41:12.416Z,0
2017-04-22T01:42:22.758Z,0
2017-04-22T01:43:33.090Z,0
2017-04-22T01:44:43.426Z,0
2017-04-22T01:45:53.438Z,0
2017-04-22T01:47:03.468Z,0
2017-04-22T01:48:13.807Z,0
2017-04-22T01:49:24.160Z,0
2017-04-22T01:50:34.506Z,0
2017-04-22T01:51:44.859Z,0
2017-04-22T01:52:55.212Z,0
2017-04-22T01:54:05.573Z,0
2017-04-22T01:55:15.608Z,0
2017-04-22T01:56:25.943Z,0
2017-04-22T01:57:36.300Z,0
2017-04-22T01:58:46.355Z,0
2017-04-22T01:59:56.674Z,0
2017-04-22T02:01:07.006Z,0
2017-04-22T02:02:17.024Z,0
2017-04-22T02:03:27.063Z,0
2017-04-22T02:04:37.394Z,0
2017-04-22T02:05:47.733Z,0
2017-04-22T02:06:57.754Z,0
2017-04-22T02:08:08.104Z,0
2017-04-22T02:09:18.448Z,0
2017-04-22T02:10:28.792Z,0
2017-04-22T02:11:39.122Z,0
2017-04-22T02:12:49.206Z,0
2017-04-22T02:13:59.220Z,0
2017-04-22T02:15:09.260Z,0
2017-04-22T02:16:19.280Z,0
2017-04-22T02:17:29.661Z,0
2017-04-22T02:18:39.367Z,0
2017-04-22T02:19:49.095Z,0
2017-04-22T02:20:59.108Z,0
2017-04-22T02:22:09.143Z,0
2017-04-22T02:23:19.148Z,0
2017-04-22T02:24:29.503Z,0
2017-04-22T02:25:39.838Z,0
2017-04-22T02:26:50.197Z,0
2017-04-22T02:28:00.351Z,0
2017-04-22T02:29:10.698Z,0
2017-04-22T02:30:20.534Z,0
2017-04-22T02:31:30.865Z,0
2017-04-22T02:32:41.228Z,0
2017-04-22T02:33:51.676Z,0
2017-04-22T02:35:02.012Z,0
2017-04-22T02:36:12.574Z,0
2017-04-22T02:37:22.590Z,0
2017-04-22T02:38:32.607Z,0
2017-04-22T02:39:42.995Z,0
2017-04-22T02:40:53.000Z,0
2017-04-22T02:42:03.035Z,0
2017-04-22T02:43:13.377Z,0
2017-04-22T02:44:23.398Z,0
2017-04-22T02:45:33.776Z,0
2017-04-22T02:46:44.092Z,0
2017-04-22T02:47:54.430Z,0
2017-04-22T02:49:04.444Z,0
2017-04-22T02:50:14.163Z,0
2017-04-22T02:51:24.196Z,0
2017-04-22T02:52:34.511Z,0
2017-04-22T02:53:44.875Z,0
2017-04-22T02:54:55.213Z,0
2017-04-22T02:56:05.532Z,0
2017-04-22T02:57:15.853Z,0
2017-04-22T02:58:26.215Z,0
2017-04-22T02:59:36.233Z,0
2017-04-22T03:00:46.254Z,0
2017-04-22T03:01:56.261Z,0
2017-04-22T03:32:56.091Z,0
2017-04-22T03:34:06.417Z,0
2017-04-22T03:35:16.728Z,0
2017-04-22T03:36:27.056Z,0
2017-04-22T03:37:36.947Z,0
2017-04-22T03:38:47.293Z,0
2017-04-22T03:39:57.615Z,0
2017-04-22T03:41:07.952Z,0
2017-04-22T03:42:18.281Z,0
2017-04-22T03:43:28.290Z,0
2017-04-22T03:44:38.659Z,0
2017-04-22T03:45:48.993Z,0
2017-04-22T03:46:59.308Z,0
2017-04-22T03:48:09.635Z,0
2017-04-22T03:49:20.066Z,0
2017-04-22T03:50:30.420Z,0
2017-04-22T03:51:40.752Z,0
2017-04-22T03:52:50.767Z,0
2017-04-22T03:54:01.151Z,0
2017-04-22T03:55:11.481Z,0
2017-04-22T03:56:21.502Z,0
2017-04-22T03:57:31.521Z,0
2017-04-22T03:58:41.853Z,0
2017-04-22T03:59:52.176Z,0
2017-04-22T04:01:01.903Z,5
2017-04-22T04:02:12.243Z,5
2017-04-22T04:03:22.570Z,5
2017-04-22T04:04:32.897Z,5
2017-04-22T04:05:43.388Z,5
2017-04-22T04:06:53.416Z,5
2017-04-22T04:08:03.517Z,5
2017-04-22T04:09:13.534Z,5
2017-04-22T04:10:23.559Z,10
2017-04-22T04:11:33.584Z,10
2017-04-22T04:12:43.912Z,10
2017-04-22T04:13:54.251Z,10
2017-04-22T04:15:04.590Z,10
2017-04-22T04:16:14.937Z,10
2017-04-22T04:17:24.969Z,10
2017-04-22T04:18:34.992Z,15
2017-04-22T04:19:44.700Z,15
2017-04-22T04:20:54.730Z,15
2017-04-22T04:22:05.068Z,15
2017-04-22T04:23:15.413Z,15
2017-04-22T04:24:25.756Z,15
2017-04-22T04:25:36.138Z,15
2017-04-22T04:26:46.161Z,15
2017-04-22T04:27:56.502Z,15
2017-04-22T04:29:06.528Z,15
2017-04-22T04:30:16.857Z,20
2017-04-22T04:31:27.193Z,20
2017-04-22T04:32:37.209Z,20
2017-04-22T04:33:47.223Z,25
2017-04-22T04:34:57.542Z,25
2017-04-22T04:36:07.574Z,25
2017-04-22T04:37:17.911Z,25
2017-04-22T04:38:27.917Z,25
2017-04-22T04:39:37.650Z,25
2017-04-22T04:40:47.372Z,25
2017-04-22T04:41:57.703Z,25
2017-04-22T04:43:08.074Z,20
2017-04-22T04:44:18.405Z,20
2017-04-22T04:45:28.432Z,20
2017-04-22T04:46:38.486Z,20
2017-04-22T04:47:48.505Z,20
2017-04-22T04:48:58.876Z,20
2017-04-22T04:50:09.225Z,20
2017-04-22T04:51:19.563Z,20
2017-04-22T04:52:29.915Z,15
2017-04-22T04:53:39.945Z,15
2017-04-22T04:54:50.281Z,15
2017-04-22T04:56:00.616Z,15
2017-04-22T04:57:10.969Z,20
2017-04-22T04:58:21.386Z,20
2017-04-22T04:59:31.706Z,20
2017-04-22T05:00:41.736Z,20
2017-04-22T05:01:51.754Z,20
2017-04-22T05:03:01.783Z,25
2017-04-22T05:04:11.811Z,25
2017-04-22T05:05:21.840Z,25
2017-04-22T05:06:32.168Z,25
2017-04-22T05:07:42.207Z,25
2017-04-22T05:08:52.246Z,25
2017-04-22T05:10:02.259Z,25
2017-04-22T05:11:11.974Z,25
2017-04-22T05:12:21.758Z,25
2017-04-22T05:13:32.123Z,25
2017-04-22T05:14:42.446Z,25
2017-04-22T05:15:53.077Z,30
2017-04-22T05:17:03.089Z,30
2017-04-22T05:18:13.116Z,30
2017-04-22T05:19:23.453Z,30
2017-04-22T05:20:33.478Z,35
2017-04-22T05:21:43.495Z,35
2017-04-22T05:22:53.536Z,35
2017-04-22T05:24:03.546Z,35
2017-04-22T05:25:13.876Z,40
2017-04-22T05:26:23.898Z,40
2017-04-22T05:27:34.223Z,40
2017-04-22T05:28:44.556Z,40
2017-04-22T05:29:54.578Z,40
2017-04-22T05:31:04.591Z,40
2017-04-22T05:32:14.303Z,40
2017-04-22T05:33:24.333Z,45
2017-04-22T05:34:34.339Z,45
2017-04-22T05:35:44.063Z,50
2017-04-22T05:36:54.401Z,55
2017-04-22T05:38:04.729Z,60
2017-04-22T05:39:15.067Z,60
2017-04-22T05:40:25.412Z,65
2017-04-22T05:41:35.425Z,65
2017-04-22T05:42:45.460Z,70
2017-04-22T05:43:55.809Z,65
2017-04-22T05:45:05.831Z,65
2017-04-22T05:46:15.853Z,55
2017-04-22T05:47:26.230Z,50
2017-04-22T05:48:36.602Z,45
2017-04-22T05:49:46.609Z,45
2017-04-22T05:50:57.174Z,45
2017-04-22T05:52:07.501Z,45
2017-04-22T05:53:17.561Z,45
2017-04-22T05:54:27.627Z,45
2017-04-22T05:55:37.955Z,45
2017-04-22T05:56:47.686Z,45
2017-04-22T05:57:58.056Z,45
2017-04-22T05:59:08.089Z,45
2017-04-22T06:00:18.447Z,45
2017-04-22T06:01:28.482Z,50
2017-04-22T06:02:38.838Z,55
2017-04-22T06:03:48.856Z,60
2017-04-22T06:04:58.618Z,65
2017-04-22T06:06:08.969Z,65
2017-04-22T06:07:18.994Z,60
2017-04-22T06:08:29.323Z,55
2017-04-22T06:09:39.354Z,50
2017-04-22T06:10:49.392Z,50
2017-04-22T06:11:59.416Z,45
2017-04-22T06:13:09.145Z,45
2017-04-22T06:14:19.167Z,45
2017-04-22T06:15:29.258Z,45
2017-04-22T06:16:39.605Z,45
2017-04-22T06:17:49.998Z,50
2017-04-22T06:18:59.723Z,50
2017-04-22T06:20:10.082Z,50
2017-04-22T06:21:20.422Z,55
2017-04-22T06:22:30.753Z,55
2017-04-22T06:23:41.153Z,60
2017-04-22T06:24:51.203Z,55
2017-04-22T06:26:01.231Z,55
2017-04-22T06:27:11.572Z,55
2017-04-22T06:28:21.909Z,50
2017-04-22T06:29:32.236Z,50
2017-04-22T06:30:42.261Z,45
2017-04-22T06:31:52.612Z,40
2017-04-22T06:33:02.310Z,40
2017-04-22T06:34:12.344Z,40
2017-04-22T06:35:22.698Z,40
2017-04-22T06:36:33.190Z,40
2017-04-22T06:37:43.242Z,40
2017-04-22T06:38:53.600Z,45
2017-04-22T06:40:04.042Z,45
2017-04-22T06:41:14.416Z,45
2017-04-22T06:42:24.454Z,45
2017-04-22T06:43:34.790Z,45
2017-04-22T06:44:45.129Z,45
2017-04-22T06:45:55.485Z,45
2017-04-22T06:47:05.889Z,45
2017-04-22T06:48:16.277Z,45
2017-04-22T06:49:26.608Z,45
2017-04-22T06:50:36.651Z,45
2017-04-22T06:51:46.673Z,40
2017-04-22T06:52:57.004Z,35
2017-04-22T06:54:07.025Z,35
2017-04-22T06:55:17.362Z,40
2017-04-22T06:56:27.384Z,40
2017-04-22T06:57:37.419Z,40
2017-04-22T06:58:47.771Z,40
2017-04-22T06:59:58.117Z,40
2017-04-22T07:01:08.264Z,40
2017-04-22T07:02:18.287Z,40
2017-04-22T07:03:28.330Z,45
2017-04-22T07:04:38.656Z,45
2017-04-22T07:05:48.983Z,50
2017-04-22T07:06:58.705Z,50
2017-04-22T07:08:09.051Z,55
2017-04-22T07:09:19.071Z,55
2017-04-22T07:10:29.087Z,55
2017-04-22T07:11:39.111Z,60
2017-04-22T07:12:49.659Z,60
2017-04-22T07:14:00.075Z,60
2017-04-22T07:15:10.527Z,65
2017-04-22T07:16:20.759Z,75
2017-04-22T07:17:30.885Z,80
2017-04-22T07:18:41.032Z,85
2017-04-22T07:19:51.370Z,85
2017-04-22T07:21:01.075Z,85
2017-04-22T07:22:11.307Z,85
2017-04-22T07:23:21.669Z,85
2017-04-22T07:24:31.802Z,80
2017-04-22T07:25:42.052Z,80
2017-04-22T07:26:52.400Z,70
2017-04-22T07:28:02.662Z,65
2017-04-22T07:29:12.740Z,65
2017-04-22T07:30:23.123Z,70
2017-04-22T07:31:33.497Z,75
2017-04-22T07:32:43.984Z,75
2017-04-22T07:33:54.034Z,75
2017-04-22T07:35:04.362Z,80
2017-04-22T07:36:14.058Z,80
2017-04-22T07:37:24.319Z,90
2017-04-22T07:38:34.673Z,105
2017-04-22T07:39:45.033Z,115
2017-04-22T07:40:55.385Z,115
2017-04-22T07:42:05.145Z,120
2017-04-22T07:43:15.493Z,125
2017-04-22T07:44:25.539Z,135
2017-04-22T07:45:35.857Z,140
2017-04-22T07:46:46.208Z,145
2017-04-22T07:47:56.421Z,145
2017-04-22T07:49:06.746Z,150
2017-04-22T07:50:17.079Z,150
2017-04-22T07:51:27.102Z,155
2017-04-22T07:52:37.438Z,155
2017-04-22T07:53:47.775Z,165
2017-04-22T07:54:58.184Z,170
2017-04-22T07:56:08.517Z,160
2017-04-22T07:57:18.240Z,155
2017-04-22T07:58:28.580Z,155
2017-04-22T07:59:38.598Z,160
2017-04-22T08:00:48.638Z,160
2017-04-22T08:01:58.993Z,165
2017-04-22T08:03:09.326Z,165
2017-04-22T08:04:19.667Z,170
2017-04-22T08:05:30.008Z,175
2017-04-22T08:06:40.355Z,190
2017-04-22T08:07:50.361Z,190
2017-04-22T08:09:00.703Z,195
2017-04-22T08:10:11.029Z,200
2017-04-22T08:11:21.055Z,200
2017-04-22T08:12:31.087Z,210
2017-04-22T08:13:41.426Z,215
2017-04-22T08:14:51.448Z,225
2017-04-22T08:16:01.760Z,235
2017-04-22T08:17:12.097Z,245
2017-04-22T08:18:22.458Z,260
2017-04-22T08:19:32.507Z,260
2017-04-22T08:20:42.665Z,275
2017-04-22T08:21:53.021Z,290
2017-04-22T08:23:03.058Z,310
2017-04-22T08:24:13.384Z,310
2017-04-22T08:25:23.713Z,315
2017-04-22T08:26:34.064Z,320
2017-04-22T08:27:44.399Z,330
2017-04-22T08:28:54.740Z,320
2017-04-22T08:30:05.091Z,300
2017-04-22T08:31:15.135Z,280
2017-04-22T08:32:25.473Z,275
2017-04-22T08:33:35.871Z,270
2017-04-22T08:34:46.209Z,270
2017-04-22T08:35:55.940Z,270
2017-04-22T08:37:06.293Z,270
2017-04-22T08:38:16.010Z,275
2017-04-22T08:39:26.356Z,280
2017-04-22T08:40:36.379Z,285
2017-04-22T08:41:46.740Z,285
2017-04-22T08:42:56.772Z,285
2017-04-22T08:44:06.816Z,285
2017-04-22T08:45:17.145Z,285
2017-04-22T08:46:27.676Z,295
2017-04-22T08:47:38.016Z,300
2017-04-22T08:48:48.566Z,300
2017-04-22T08:49:58.733Z,305
2017-04-22T08:51:09.064Z,300
2017-04-22T08:52:19.410Z,305
2017-04-22T08:53:29.450Z,310
2017-04-22T08:54:39.473Z,325
2017-04-22T08:55:49.841Z,340
2017-04-22T08:57:00.183Z,345
2017-04-22T08:58:10.222Z,365
2017-04-22T08:59:20.274Z,365
2017-04-22T09:00:30.625Z,380
2017-04-22T09:01:40.693Z,380
2017-04-22T09:02:50.414Z,385
2017-04-22T09:04:00.777Z,375
2017-04-22T09:05:11.115Z,370
2017-04-22T09:06:21.467Z,365
2017-04-22T09:07:31.488Z,360
2017-04-22T09:08:41.829Z,370
2017-04-22T09:09:51.891Z,370
2017-04-22T09:11:02.246Z,375
2017-04-22T09:12:12.593Z,375
2017-04-22T09:13:22.936Z,385
2017-04-22T09:14:33.272Z,390
2017-04-22T09:15:43.631Z,375
2017-04-22T09:16:53.343Z,365
2017-04-22T09:18:03.675Z,365
2017-04-22T09:19:13.710Z,360
2017-04-22T09:20:23.744Z,350
2017-04-22T09:21:34.137Z,355
2017-04-22T09:22:44.465Z,350
2017-04-22T09:23:54.819Z,345
2017-04-22T09:25:04.533Z,345
2017-04-22T09:26:14.874Z,340
2017-04-22T09:27:25.217Z,340
2017-04-22T09:28:35.590Z,345
2017-04-22T09:29:45.954Z,335
2017-04-22T09:30:56.000Z,330
2017-04-22T09:32:06.328Z,330
2017-04-22T09:33:16.382Z,335
2017-04-22T09:34:26.426Z,340
2017-04-22T09:35:36.772Z,345
2017-04-22T09:36:47.107Z,335
2017-04-22T09:37:57.141Z,340
2017-04-22T09:39:07.488Z,350
2017-04-22T09:40:17.523Z,350
2017-04-22T09:41:27.891Z,360
2017-04-22T09:42:38.227Z,370
2017-04-22T09:43:48.576Z,365
2017-04-22T09:44:59.243Z,345
2017-04-22T09:46:08.955Z,320
2017-04-22T09:47:18.686Z,280
2017-04-22T09:48:28.408Z,255
2017-04-22T09:49:38.810Z,220
2017-04-22T09:50:49.170Z,190
2017-04-22T09:51:59.537Z,180
2017-04-22T09:53:09.590Z,170
2017-04-22T09:54:19.956Z,155
2017-04-22T09:55:30.318Z,140
2017-04-22T09:56:40.669Z,130
2017-04-22T09:57:51.030Z,130
2017-04-22T09:59:01.346Z,140
2017-04-22T10:00:11.375Z,145
2017-04-22T10:01:21.746Z,155
2017-04-22T10:02:31.773Z,160
2017-04-22T10:03:42.131Z,160
2017-04-22T10:04:52.461Z,150
2017-04-22T10:06:02.798Z,145
2017-04-22T10:07:13.151Z,140
2017-04-22T10:08:23.189Z,135
2017-04-22T10:09:33.559Z,135
2017-04-22T10:10:43.616Z,130
2017-04-22T10:11:53.665Z,130
2017-04-22T10:13:04.263Z,135
2017-04-22T10:14:14.587Z,145
2017-04-22T10:15:25.119Z,145
2017-04-22T10:16:35.575Z,145
2017-04-22T10:17:45.932Z,150
2017-04-22T10:18:56.301Z,155
2017-04-22T10:20:06.402Z,160
2017-04-22T10:21:16.740Z,160
2017-04-22T10:22:27.063Z,155
2017-04-22T10:23:36.813Z,160
2017-04-22T10:24:46.860Z,160
2017-04-22T10:25:56.883Z,170
2017-04-22T10:27:06.919Z,180
2017-04-22T10:28:17.282Z,190
2017-04-22T10:29:27.641Z,200
2017-04-22T10:30:37.969Z,205
2017-04-22T10:31:48.019Z,215
2017-04-22T10:32:58.371Z,215
2017-04-22T10:34:08.715Z,220
2017-04-22T10:35:18.751Z,235
2017-04-22T10:36:29.091Z,240
2017-04-22T10:37:39.411Z,245
2017-04-22T10:38:49.742Z,255
2017-04-22T10:39:59.454Z,260
2017-04-22T10:41:09.793Z,260
2017-04-22T10:42:20.118Z,265
2017-04-22T10:43:30.460Z,275
2017-04-22T10:44:40.486Z,280
2017-04-22T10:45:50.825Z,285
2017-04-22T10:47:00.542Z,285
2017-04-22T10:48:10.887Z,285
2017-04-22T10:49:20.608Z,295
2017-04-22T10:50:30.969Z,305
2017-04-22T10:51:40.671Z,315
2017-04-22T10:52:50.383Z,315
2017-04-22T10:54:00.725Z,320
2017-04-22T10:55:11.317Z,330
2017-04-22T10:56:21.853Z,330
2017-04-22T10:57:32.466Z,330
2017-04-22T10:58:42.712Z,320
2017-04-22T10:59:53.137Z,315
2017-04-22T11:01:03.287Z,310
2017-04-22T11:02:13.646Z,315
2017-04-22T11:03:24.042Z,315
2017-04-22T11:04:34.084Z,310
2017-04-22T11:05:44.427Z,305
2017-04-22T11:06:54.798Z,300
2017-04-22T11:08:05.140Z,320
2017-04-22T11:09:15.510Z,325
2017-04-22T11:10:25.537Z,315
2017-04-22T11:11:35.886Z,300
2017-04-22T11:12:45.944Z,280
2017-04-22T11:13:56.286Z,265
2017-04-22T11:15:06.639Z,270
2017-04-22T11:16:17.001Z,275
2017-04-22T11:17:27.347Z,275
2017-04-22T11:18:37.706Z,280
2017-04-22T11:19:47.729Z,275
2017-04-22T11:20:58.053Z,265
2017-04-22T11:22:08.406Z,255
2017-04-22T11:23:18.767Z,270
2017-04-22T11:24:28.493Z,270
2017-04-22T11:25:38.526Z,250
2017-04-22T11:26:48.561Z,220
2017-04-22T11:27:58.580Z,185
2017-04-22T11:29:08.625Z,155
2017-04-22T11:30:18.964Z,145
2017-04-22T11:31:28.983Z,140
2017-04-22T11:32:39.316Z,140
2017-04-22T11:33:49.694Z,145
2017-04-22T11:35:00.049Z,160
2017-04-22T11:36:10.096Z,155
2017-04-22T11:37:20.473Z,145
2017-04-22T11:38:30.517Z,140
2017-04-22T11:39:40.868Z,145
2017-04-22T11:40:50.903Z,155
2017-04-22T11:42:01.260Z,165
2017-04-22T11:43:11.421Z,180
2017-04-22T11:44:21.763Z,195
2017-04-22T11:45:31.918Z,210
2017-04-22T11:46:41.794Z,210
2017-04-22T11:47:52.164Z,210
2017-04-22T11:49:02.869Z,215
2017-04-22T11:50:13.239Z,220
2017-04-22T11:51:23.583Z,220
2017-04-22T11:52:33.963Z,195
2017-04-22T11:53:44.338Z,180
2017-04-22T11:54:54.373Z,170
2017-04-22T11:56:04.742Z,170
2017-04-22T11:57:14.778Z,165
2017-04-22T11:58:25.153Z,165
2017-04-22T11:59:35.491Z,175
2017-04-22T12:00:45.844Z,185
2017-04-22T12:01:56.178Z,195
2017-04-22T12:03:06.524Z,195
2017-04-22T12:04:16.542Z,190
2017-04-22T12:05:26.892Z,190
2017-04-22T12:06:36.664Z,185
2017-04-22T12:07:47.022Z,175
2017-04-22T12:08:57.069Z,165
2017-04-22T12:10:07.102Z,150
2017-04-22T12:11:17.428Z,145
2017-04-22T12:12:27.458Z,145
2017-04-22T12:13:37.829Z,145
2017-04-22T12:14:48.187Z,150
2017-04-22T12:15:58.204Z,145
2017-04-22T12:17:08.232Z,150
2017-04-22T12:18:18.578Z,150
2017-04-22T12:19:28.605Z,150
2017-04-22T12:20:38.933Z,145
2017-04-22T12:21:48.987Z,145
2017-04-22T12:22:59.016Z,150
2017-04-22T12:24:09.351Z,155
2017-04-22T12:25:19.718Z,150
2017-04-22T12:26:30.050Z,155
2017-04-22T12:27:40.382Z,160
2017-04-22T12:28:50.741Z,155
2017-04-22T12:30:00.793Z,155
2017-04-22T12:31:11.124Z,155
2017-04-22T12:32:21.150Z,155
2017-04-22T12:33:30.862Z,170
2017-04-22T12:34:40.568Z,185
2017-04-22T12:35:50.895Z,190
2017-04-22T12:37:01.230Z,190
2017-04-22T12:38:11.583Z,185
2017-04-22T12:39:21.924Z,185
2017-04-22T12:40:32.522Z,190
2017-04-22T12:41:42.537Z,200
2017-04-22T12:42:52.866Z,210
2017-04-22T12:44:03.258Z,225
2017-04-22T12:45:13.296Z,245
2017-04-22T12:46:23.335Z,260
2017-04-22T12:47:33.370Z,265
2017-04-22T12:48:43.814Z,265
2017-04-22T12:49:54.123Z,265
2017-04-22T12:51:04.514Z,270
2017-04-22T12:52:14.883Z,270
2017-04-22T12:53:25.226Z,270
2017-04-22T12:54:35.251Z,275
2017-04-22T12:55:45.610Z,280
2017-04-22T12:56:55.638Z,290
2017-04-22T12:58:06.022Z,300
2017-04-22T12:59:16.042Z,300
2017-04-22T13:00:26.089Z,305
2017-04-22T13:01:36.123Z,300
2017-04-22T13:02:46.178Z,305
2017-04-22T13:03:56.553Z,305
2017-04-22T13:05:06.875Z,305
2017-04-22T13:06:17.218Z,300
2017-04-22T13:07:27.562Z,295
2017-04-22T13:08:37.909Z,295
2017-04-22T13:09:48.255Z,310
2017-04-22T13:10:58.313Z,315
2017-04-22T13:12:08.692Z,310
2017-04-22T13:13:19.043Z,305
2017-04-22T13:14:29.086Z,295
2017-04-22T13:15:39.237Z,305
2017-04-22T13:16:49.599Z,300
2017-04-22T13:17:59.618Z,295
2017-04-22T13:19:09.676Z,285
2017-04-22T13:20:20.053Z,275
2017-04-22T13:21:30.453Z,280
2017-04-22T13:22:40.803Z,280
2017-04-22T13:23:50.836Z,290
2017-04-22T13:25:01.206Z,275
2017-04-22T13:26:11.627Z,260
2017-04-22T13:27:21.961Z,250
2017-04-22T13:28:32.326Z,240
2017-04-22T13:29:42.698Z,230
2017-04-22T13:30:53.050Z,225
2017-04-22T13:32:03.387Z,225
2017-04-22T13:33:13.719Z,225
2017-04-22T13:34:24.064Z,225
2017-04-22T13:35:34.418Z,220
2017-04-22T13:36:44.463Z,210
2017-04-22T13:37:54.476Z,210
2017-04-22T13:39:04.807Z,210
2017-04-22T13:40:14.519Z,210
2017-04-22T13:41:24.874Z,210
2017-04-22T13:42:35.250Z,215
2017-04-22T13:43:45.280Z,215
2017-04-22T13:44:55.350Z,215
2017-04-22T13:46:05.745Z,215
2017-04-22T13:47:15.841Z,215
2017-04-22T13:48:25.872Z,215
2017-04-22T13:49:35.909Z,220
2017-04-22T13:50:46.294Z,220
2017-04-22T13:51:56.643Z,225
2017-04-22T13:53:06.994Z,230
2017-04-22T13:54:17.379Z,235
2017-04-22T13:55:27.761Z,240
2017-04-22T13:56:38.114Z,240
2017-04-22T13:57:48.153Z,240
2017-04-22T13:58:58.503Z,245
2017-04-22T14:00:08.842Z,250
2017-04-22T14:01:19.031Z,250
2017-04-22T14:02:29.385Z,250
2017-04-22T14:03:39.738Z,240
2017-04-22T14:04:50.177Z,230
2017-04-22T14:06:00.206Z,220
2017-04-22T14:07:10.674Z,205
2017-04-22T14:08:21.170Z,195
2017-04-22T14:09:31.585Z,190
2017-04-22T14:10:41.937Z,185
2017-04-22T14:11:52.314Z,175
2017-04-22T14:13:02.665Z,160
2017-04-22T14:14:13.008Z,150
2017-04-22T14:15:23.259Z,150
2017-04-22T14:16:33.796Z,150
2017-04-22T14:17:44.144Z,145
2017-04-22T14:18:54.514Z,130
2017-04-22T14:20:04.901Z,110
2017-04-22T14:21:15.424Z,95
2017-04-22T14:22:25.811Z,85
2017-04-22T14:23:35.832Z,80
2017-04-22T14:24:46.279Z,75
2017-04-22T14:25:56.620Z,80
2017-04-22T14:27:06.958Z,75
2017-04-22T14:28:16.999Z,75
2017-04-22T14:29:27.341Z,70
2017-04-22T14:30:37.771Z,65
2017-04-22T14:31:48.111Z,65
2017-04-22T14:32:58.481Z,60
2017-04-22T14:34:08.826Z,60
2017-04-22T14:35:18.901Z,60
2017-04-22T14:36:29.265Z,60
2017-04-22T14:37:39.606Z,60
2017-04-22T14:38:49.859Z,65
2017-04-22T14:40:00.216Z,70
2017-04-22T14:41:10.323Z,70
2017-04-22T14:42:20.665Z,65
2017-04-22T14:43:30.704Z,70
2017-04-22T14:44:41.051Z,65
2017-04-22T14:45:51.411Z,70
2017-04-22T14:47:01.757Z,70
2017-04-22T14:48:12.103Z,80
2017-04-22T14:49:22.461Z,80
2017-04-22T14:50:32.804Z,80
2017-04-22T14:51:43.156Z,80
2017-04-22T14:52:53.495Z,80
2017-04-22T14:54:03.523Z,70
2017-04-22T14:55:13.588Z,60
2017-04-22T14:56:23.986Z,50
2017-04-22T14:57:34.018Z,50
2017-04-22T14:58:44.097Z,45
2017-04-22T14:59:54.612Z,50
2017-04-22T15:01:05.589Z,55
2017-04-22T15:02:16.419Z,60
2017-04-22T15:03:27.511Z,60
2017-04-22T15:04:37.929Z,50
2017-04-22T15:05:48.600Z,40
2017-04-22T15:06:59.150Z,40
2017-04-22T15:08:09.665Z,35
2017-04-22T15:09:20.691Z,30
2017-04-22T15:10:31.493Z,25
2017-04-22T15:11:41.694Z,25
2017-04-22T15:12:52.101Z,20
2017-04-22T15:14:02.855Z,20
2017-04-22T15:15:14.554Z,15
2017-04-22T15:16:25.166Z,15
2017-04-22T15:17:35.727Z,15
2017-04-22T15:18:46.722Z,15
2017-04-22T15:19:56.912Z,15
2017-04-22T15:21:07.336Z,15
2017-04-22T15:22:17.331Z,15
2017-04-22T15:23:28.003Z,10
2017-04-22T15:24:38.904Z,10
2017-04-22T15:25:49.980Z,10
2017-04-22T15:27:02.392Z,5
2017-04-22T15:28:14.087Z,5
2017-04-22T15:29:25.009Z,10
2017-04-22T15:30:36.310Z,10
2017-04-22T15:31:47.894Z,10
2017-04-22T15:32:59.717Z,5
2017-04-22T15:34:11.367Z,5
2017-04-22T15:35:22.702Z,10
2017-04-22T15:36:34.136Z,10
2017-04-22T15:37:45.227Z,10
2017-04-22T15:38:56.365Z,10
2017-04-22T15:40:07.244Z,10
2017-04-22T15:41:18.008Z,10
2017-04-22T15:42:29.776Z,10
2017-04-22T15:43:40.455Z,10
2017-04-22T15:44:51.394Z,10
2017-04-22T15:46:02.046Z,5
2017-04-22T15:47:13.086Z,5
2017-04-22T15:48:23.867Z,10
2017-04-22T15:49:34.229Z,10
2017-04-22T15:50:44.598Z,10
2017-04-22T15:51:54.935Z,5
2017-04-22T15:53:05.483Z,5
2017-04-22T15:54:16.227Z,5
2017-04-22T15:55:27.703Z,5
2017-04-22T15:56:38.999Z,5
2017-04-22T15:57:49.186Z,10
2017-04-22T15:58:59.691Z,10
2017-04-22T16:00:10.464Z,5
2017-04-22T16:01:21.166Z,5
2017-04-22T16:02:32.279Z,5
2017-04-22T16:03:43.096Z,5
2017-04-22T16:04:53.749Z,5
2017-04-22T16:06:04.863Z,5
2017-04-22T16:07:15.608Z,5
2017-04-22T16:08:26.169Z,5
2017-04-22T16:09:37.065Z,5
2017-04-22T16:10:47.825Z,5
2017-04-22T16:11:58.852Z,5
2017-04-22T16:13:09.798Z,5
2017-04-22T16:14:21.660Z,5
2017-04-22T16:15:32.876Z,10
2017-04-22T16:16:43.521Z,10
2017-04-22T16:17:54.736Z,10
2017-04-22T16:19:08.059Z,5
2017-04-22T16:20:19.290Z,10
2017-04-22T16:21:29.719Z,5
2017-04-22T16:22:41.993Z,5
2017-04-22T16:23:53.055Z,5
2017-04-22T16:25:03.872Z,5
2017-04-22T16:26:14.743Z,10
2017-04-22T16:27:26.364Z,10
2017-04-22T16:28:37.589Z,5
2017-04-22T16:29:48.984Z,5
2017-04-22T16:31:00.159Z,5
2017-04-22T16:32:11.369Z,5
2017-04-22T16:33:22.410Z,5
2017-04-22T16:34:33.598Z,5
2017-04-22T16:35:44.924Z,5
2017-04-22T16:36:56.629Z,10
2017-04-22T16:38:08.793Z,10
2017-04-22T16:39:19.628Z,10
2017-04-22T16:40:30.636Z,15
2017-04-22T16:41:41.563Z,15
2017-04-22T16:42:52.388Z,20
2017-04-22T16:44:03.129Z,20
2017-04-22T16:45:14.596Z,20
2017-04-22T16:46:26.246Z,20
2017-04-22T16:47:37.505Z,20
2017-04-22T16:48:48.892Z,15
2017-04-22T16:50:02.176Z,15
2017-04-22T16:51:14.253Z,15
2017-04-22T16:52:26.864Z,15
2017-04-22T16:53:42.463Z,15
2017-04-22T16:54:55.159Z,15
2017-04-22T16:56:06.111Z,15
2017-04-22T16:57:17.938Z,15
2017-04-22T16:58:28.875Z,10
2017-04-22T16:59:40.078Z,10
2017-04-22T17:00:51.455Z,10
2017-04-22T17:02:02.591Z,5
2017-04-22T17:03:13.347Z,5
2017-04-22T17:04:24.801Z,5
2017-04-22T17:05:36.484Z,5
2017-04-22T17:06:47.425Z,5
2017-04-22T17:07:58.121Z,10